X  Tanca Dades meteorològiques de l'aviació METAR     YMML Melbourne International Airport
Temperatura
13°C Temperatura
11°C Rosada
88% Humitat



Vent
7 MPH
11 KM/H
3 M/S
6 NUS



240°
OSO
Condicions actuals

Parcialment ennuvolat Parcialment ennuvolat
Pressió 1014.9 (hPa) - 29.97 (inHg)
Visibilitat 6 (milla) - 9.7 (km)
Aeroport
Codi aeroport YMML

Ubicació: Melbourne International Airport
Distància: 18 (mi)

Metar:
YMML 011830Z 24006KT 9999 FEW047 BKN250 13/11 Q1015 RF00.0/000.0

Temps: 02-03-2024 05:30 AEDT